Time;durP1;ratioP1;P1;durP2;ratioP2;P2;SDS_P1;SDS_P2;PMS_P1;PMS_P2;Temp;Humidity;BMP_temperature;BMP_pressure;BME280_temperature;BME280_humidity;BME280_pressure;Samples;Min_cycle;Max_cycle;Signal;HPM_P1;HPM_P2
2021/03/05 00:00:12;;;;;;;9.30;4.60;;;2.40;99.90;;;2.18;95.00;102537.41;4993179;28;20113;-62
2021/03/05 00:02:39;;;;;;;9.25;4.60;;;2.30;99.90;;;2.09;94.87;102536.22;5010091;28;20050;-62
2021/03/05 00:05:07;;;;;;;7.63;5.03;;;2.30;99.90;;;2.11;95.62;102542.34;5027856;28;20041;-61
2021/03/05 00:07:33;;;;;;;8.25;5.35;;;2.30;99.90;;;2.05;95.99;102533.81;4991467;28;20531;-63
2021/03/05 00:09:59;;;;;;;7.63;5.20;;;2.30;99.90;;;2.00;96.41;102549.41;5008681;28;20030;-66
2021/03/05 00:12:25;;;;;;;9.70;6.18;;;2.20;99.90;;;1.88;97.16;102547.53;4992829;28;20129;-67
2021/03/05 00:14:51;;;;;;;12.02;5.18;;;2.20;99.90;;;1.83;97.88;102548.69;5009617;28;20081;-64
2021/03/05 00:17:17;;;;;;;9.82;5.40;;;2.20;99.90;;;1.83;98.07;102548.69;5009276;28;20599;-66
2021/03/05 00:19:43;;;;;;;8.10;5.57;;;2.10;99.90;;;1.78;98.65;102550.84;5009928;28;20037;-63
2021/03/05 00:22:09;;;;;;;12.60;6.35;;;2.10;99.90;;;1.79;98.62;102555.25;4976606;28;20042;-64
2021/03/05 00:24:35;;;;;;;8.32;5.85;;;2.10;99.90;;;1.78;98.91;102556.19;5025972;28;20060;-64
2021/03/05 00:27:02;;;;;;;8.50;4.97;;;2.10;99.90;;;1.81;98.42;102555.97;5026325;28;20311;-63
2021/03/05 00:29:28;;;;;;;11.93;4.70;;;2.10;99.90;;;1.81;98.50;102561.34;4992729;28;20122;-63
2021/03/05 00:31:54;;;;;;;9.63;5.45;;;2.10;99.90;;;1.76;98.62;102557.25;5010175;28;20129;-67
2021/03/05 00:34:20;;;;;;;10.50;6.05;;;2.00;99.90;;;1.77;98.49;102558.97;5010135;28;20034;-69
2021/03/05 00:36:46;;;;;;;10.07;5.80;;;2.10;99.90;;;1.80;98.68;102562.34;5009045;28;20033;-67
2021/03/05 00:39:12;;;;;;;7.35;4.80;;;2.00;99.90;;;1.77;98.83;102564.34;5009863;28;20038;-66
2021/03/05 00:41:38;;;;;;;7.32;4.35;;;2.00;99.90;;;1.76;98.61;102565.31;5009369;28;20052;-66
2021/03/05 00:44:05;;;;;;;9.50;5.35;;;2.00;99.90;;;1.76;99.02;102568.00;5026203;28;20480;-68
2021/03/05 00:46:32;;;;;;;9.73;4.90;;;2.00;99.90;;;1.77;98.57;102565.22;5008719;28;20041;-68
2021/03/05 00:48:59;;;;;;;13.52;5.85;;;2.00;99.90;;;1.84;98.22;102576.41;4999271;28;20566;-67
2021/03/05 00:51:25;;;;;;;12.75;5.55;;;2.00;99.90;;;1.91;98.46;102582.25;4990439;28;20120;-70
2021/03/05 00:53:52;;;;;;;5.95;3.80;;;2.00;99.90;;;1.69;98.91;102572.88;5009147;28;20048;-67
2021/03/05 00:56:18;;;;;;;7.60;4.18;;;2.00;99.90;;;1.58;99.66;102578.09;4993072;28;20034;-62
2021/03/05 00:58:44;;;;;;;9.20;4.95;;;1.90;99.90;;;1.57;99.67;102575.53;5008309;28;20050;-62
2021/03/05 01:01:10;;;;;;;9.27;4.85;;;1.90;99.90;;;1.54;100.00;102578.41;5008208;28;20499;-61
2021/03/05 01:03:36;;;;;;;8.32;5.00;;;1.90;99.90;;;1.45;100.00;102580.75;5026223;28;20044;-61
2021/03/05 01:06:02;;;;;;;15.52;4.68;;;1.80;99.90;;;1.45;100.00;102587.91;5006809;28;20038;-61
2021/03/05 01:08:28;;;;;;;9.05;4.68;;;1.80;99.90;;;1.48;100.00;102589.53;5009174;28;20072;-62
2021/03/05 01:10:54;;;;;;;11.35;4.05;;;1.80;99.90;;;1.46;100.00;102578.91;5009530;28;20038;-61
2021/03/05 01:13:20;;;;;;;11.27;4.53;;;1.70;99.90;;;1.41;100.00;102583.69;5009576;28;20037;-63
2021/03/05 01:15:46;;;;;;;8.65;4.70;;;1.80;99.90;;;1.54;100.00;102592.69;4993280;28;20061;-62
2021/03/05 01:18:12;;;;;;;11.95;4.72;;;1.70;99.90;;;1.46;100.00;102597.69;5008817;28;20109;-60
2021/03/05 01:20:38;;;;;;;11.32;4.60;;;1.70;99.90;;;1.37;99.94;102592.91;5025910;28;20042;-61
2021/03/05 01:23:04;;;;;;;11.50;4.20;;;1.70;99.90;;;1.35;99.86;102600.19;5024041;28;20112;-64
2021/03/05 01:25:33;;;;;;;7.72;4.40;;;1.60;99.90;;;1.37;100.00;102609.00;5009636;28;20050;-65
2021/03/05 01:28:00;;;;;;;12.85;3.40;;;1.70;99.90;;;1.37;99.44;102609.00;5008432;28;20060;-65
2021/03/05 01:30:26;;;;;;;6.65;2.88;;;1.60;99.90;;;1.38;98.71;102603.53;4991935;28;20128;-62
2021/03/05 01:32:53;;;;;;;15.10;3.72;;;1.60;99.90;;;1.35;98.14;102600.19;5007874;28;20030;-66
2021/03/05 01:35:27;;;;;;;8.82;3.15;;;1.60;99.90;;;1.34;97.90;102609.22;5009158;28;20119;-67
2021/03/05 01:37:53;;;;;;;12.68;3.40;;;1.60;99.90;;;1.36;97.16;102615.31;5008698;28;20022;-62
2021/03/05 01:40:33;;;;;;;8.65;3.38;;;1.60;99.90;;;1.33;96.53;102607.47;5009121;28;20044;-62
2021/03/05 01:42:59;;;;;;;12.13;3.00;;;1.60;99.90;;;1.29;95.76;102614.00;4983099;28;20034;-65
2021/03/05 01:45:29;;;;;;;18.33;2.78;;;1.60;99.90;;;1.30;95.89;102613.03;5007243;28;20160;-66
2021/03/05 01:48:11;;;;;;;9.15;2.42;;;1.60;99.90;;;1.40;94.77;102630.25;4991408;28;20506;-62
2021/03/05 01:51:11;;;;;;;8.85;2.05;;;1.60;99.90;;;1.42;93.79;102614.94;5009093;28;20044;-64
2021/03/05 01:53:41;;;;;;;6.47;2.65;;;1.60;99.90;;;1.44;93.87;102615.72;5010471;28;20156;-64
2021/03/05 01:56:08;;;;;;;9.50;2.85;;;1.60;99.90;;;1.34;93.74;102614.56;5025678;28;20041;-61
2021/03/05 01:58:35;;;;;;;7.38;1.60;;;1.60;99.90;;;1.33;93.86;102620.91;5006605;28;20038;-60
2021/03/05 02:01:08;;;;;;;11.77;2.00;;;1.50;99.90;;;1.26;94.48;102617.72;5009288;28;20046;-63
2021/03/05 02:03:35;;;;;;;10.35;1.92;;;1.60;99.90;;;1.29;94.29;102622.03;5024087;28;20418;-60
2021/03/05 02:06:03;;;;;;;7.65;1.65;;;1.50;99.90;;;1.18;94.45;102625.38;5010162;28;20045;-60
2021/03/05 02:08:29;;;;;;;14.10;2.72;;;1.50;99.90;;;1.18;94.18;102629.88;5022909;28;20471;-61
2021/03/05 02:10:55;;;;;;;15.60;1.60;;;1.50;99.90;;;1.16;95.04;102631.81;5011282;28;20034;-61
2021/03/05 02:13:21;;;;;;;9.15;1.98;;;1.40;99.90;;;1.15;94.80;102638.13;4990338;28;20049;-60
2021/03/05 02:15:48;;;;;;;10.15;2.30;;;1.40;99.90;;;1.11;95.03;102637.47;5007791;28;20034;-61
2021/03/05 02:18:33;;;;;;;5.25;1.70;;;1.40;99.90;;;1.13;95.17;102626.66;5006774;28;20048;-62
2021/03/05 02:21:56;;;;;;;8.48;2.13;;;1.40;99.90;;;1.09;96.21;102632.19;5004867;28;20049;-65
2021/03/05 02:24:31;;;;;;;8.25;3.40;;;1.40;99.90;;;1.08;95.69;102634.97;5005657;28;20038;-65
2021/03/05 02:27:43;;;;;;;5.30;2.10;;;1.40;99.90;;;1.08;95.65;102638.50;5008815;28;20030;-62
2021/03/05 02:30:49;;;;;;;9.18;2.15;;;1.30;99.90;;;1.08;94.53;102643.00;5021352;28;20050;-63
2021/03/05 02:33:27;;;;;;;10.25;1.85;;;1.40;99.90;;;1.11;94.94;102644.66;5012124;28;20038;-67
2021/03/05 02:35:55;;;;;;;9.23;1.33;;;1.30;99.90;;;1.08;95.27;102641.19;5024909;28;20113;-66
2021/03/05 02:38:27;;;;;;;4.93;1.67;;;1.30;99.90;;;1.08;94.66;102643.00;4980757;28;20030;-65
2021/03/05 02:40:54;;;;;;;7.10;1.00;;;1.30;99.90;;;1.10;95.16;102643.78;5021437;28;20507;-64
2021/03/05 02:43:24;;;;;;;8.05;1.67;;;1.30;99.90;;;1.08;95.21;102643.88;5005716;28;20026;-67
2021/03/05 02:46:01;;;;;;;9.30;2.00;;;1.30;99.90;;;1.09;95.17;102650.97;4992057;28;20026;-63
2021/03/05 02:48:43;;;;;;;9.95;2.05;;;1.40;99.90;;;1.17;95.14;102654.97;5007769;28;20363;-66
2021/03/05 02:51:11;;;;;;;13.38;2.17;;;1.40;99.90;;;1.01;95.33;102655.94;4984766;28;20116;-65
2021/03/05 02:53:40;;;;;;;13.13;2.10;;;1.30;99.90;;;0.97;94.80;102662.44;5006707;28;20042;-66
2021/03/05 02:56:18;;;;;;;8.20;1.27;;;1.20;99.90;;;1.02;94.66;102660.31;5008232;28;20034;-62
2021/03/05 02:58:48;;;;;;;6.35;2.10;;;1.20;99.90;;;0.96;94.06;102663.41;5023838;28;20076;-63
2021/03/05 03:01:15;;;;;;;4.30;1.58;;;1.20;99.90;;;1.00;93.38;102669.44;4995923;28;20059;-62
2021/03/05 03:03:42;;;;;;;8.77;1.48;;;1.20;99.90;;;1.10;93.24;102659.88;5010878;28;20399;-60
2021/03/05 03:06:14;;;;;;;10.70;1.45;;;1.30;99.90;;;1.04;92.81;102663.78;5011493;28;20022;-62
2021/03/05 03:08:40;;;;;;;10.68;1.67;;;1.20;99.90;;;1.02;93.36;102671.03;5011664;28;20132;-61
2021/03/05 03:11:07;;;;;;;14.15;1.23;;;1.20;99.90;;;1.06;92.57;102669.91;5011429;28;20399;-60
2021/03/05 03:13:35;;;;;;;7.78;1.48;;;1.20;99.90;;;0.93;92.80;102673.44;5010591;28;20049;-62
2021/03/05 03:16:03;;;;;;;7.35;1.35;;;1.20;99.90;;;1.00;93.02;102674.81;5012089;28;20164;-62
2021/03/05 03:18:33;;;;;;;4.28;0.93;;;1.20;99.90;;;1.02;93.03;102676.41;5011935;28;20128;-62
2021/03/05 03:21:04;;;;;;;6.45;1.23;;;1.20;99.90;;;0.93;92.75;102671.63;5005072;28;20084;-63
2021/03/05 03:23:30;;;;;;;7.90;1.50;;;1.20;99.90;;;1.02;92.16;102679.09;5010987;28;20070;-61
2021/03/05 03:25:59;;;;;;;2.67;1.05;;;1.20;99.90;;;0.98;92.07;102682.94;5011199;28;20038;-62
2021/03/05 03:28:25;;;;;;;4.03;1.48;;;1.20;99.90;;;0.94;92.07;102684.06;5009576;28;20046;-63
2021/03/05 03:30:51;;;;;;;13.15;1.67;;;1.10;99.90;;;0.87;92.82;102681.84;4995903;28;20061;-62
2021/03/05 03:33:18;;;;;;;9.63;1.63;;;1.10;99.90;;;0.84;93.11;102685.59;4994947;28;20034;-62
2021/03/05 03:35:45;;;;;;;3.65;1.45;;;1.10;99.90;;;0.81;93.01;102690.25;5009593;28;20049;-60
2021/03/05 03:38:12;;;;;;;14.98;1.40;;;1.10;99.90;;;0.80;93.16;102694.75;5026739;28;20417;-60
2021/03/05 03:40:41;;;;;;;9.43;0.85;;;1.00;99.90;;;0.80;93.30;102694.75;5027916;28;20045;-60
2021/03/05 03:43:06;;;;;;;16.27;3.05;;;1.00;99.90;;;0.81;93.60;102691.13;5010398;28;20037;-64
2021/03/05 03:45:35;;;;;;;8.90;1.20;;;1.00;99.90;;;0.80;93.92;102694.75;5026140;28;20034;-62
2021/03/05 03:48:02;;;;;;;10.43;1.40;;;1.00;99.90;;;0.78;93.77;102702.03;5009513;28;20100;-62
2021/03/05 03:50:47;;;;;;;7.32;1.13;;;1.00;99.90;;;0.71;93.61;102706.03;4992023;28;20057;-63
2021/03/05 03:53:20;;;;;;;9.90;1.70;;;1.00;99.90;;;0.73;93.44;102704.97;5019080;28;20034;-61
2021/03/05 03:55:51;;;;;;;17.50;1.88;;;1.00;99.90;;;0.77;93.11;102708.34;5011276;28;20057;-61
2021/03/05 03:58:17;;;;;;;4.43;1.13;;;1.00;99.90;;;0.74;93.27;102711.22;5008111;28;20036;-61
2021/03/05 04:00:46;;;;;;;17.27;1.83;;;1.00;99.90;;;0.70;93.44;102710.50;5027704;28;20046;-61
2021/03/05 04:03:13;;;;;;;15.55;1.70;;;1.00;99.90;;;0.78;93.55;102723.47;5022183;28;20033;-60
2021/03/05 04:05:44;;;;;;;6.28;1.85;;;0.90;99.90;;;0.74;93.13;102716.56;5023898;28;20068;-61
2021/03/05 04:08:12;;;;;;;6.32;1.13;;;0.90;99.90;;;0.72;93.66;102724.69;4993926;28;20068;-63
2021/03/05 04:10:40;;;;;;;4.65;0.98;;;0.90;99.90;;;0.59;93.42;102738.91;4994932;28;20042;-61
2021/03/05 04:13:06;;;;;;;15.15;1.73;;;0.90;99.90;;;0.58;94.02;102727.31;4993265;28;20146;-67
2021/03/05 04:15:33;;;;;;;4.60;1.23;;;0.90;99.90;;;0.65;93.32;102727.84;5008126;28;20068;-64
2021/03/05 04:17:59;;;;;;;4.28;1.30;;;0.90;99.90;;;0.65;93.68;102726.03;5009922;28;20034;-66
2021/03/05 04:20:26;;;;;;;6.97;1.30;;;0.80;99.90;;;0.61;93.28;102737.00;5011159;28;20361;-64
2021/03/05 04:22:52;;;;;;;7.88;2.35;;;0.90;99.90;;;0.57;93.99;102740.78;5010145;28;20042;-63
2021/03/05 04:25:19;;;;;;;7.07;1.63;;;0.90;99.90;;;0.64;93.76;102736.81;5027187;28;20022;-63
2021/03/05 04:27:45;;;;;;;17.10;2.40;;;0.80;99.90;;;0.55;93.30;102748.09;5005152;28;20033;-66
2021/03/05 04:30:13;;;;;;;6.70;1.30;;;0.80;99.90;;;0.52;93.33;102742.91;5010435;28;20038;-68
2021/03/05 04:32:41;;;;;;;7.97;1.95;;;0.80;99.90;;;0.55;93.65;102743.59;5007850;28;20045;-62
2021/03/05 04:35:11;;;;;;;19.52;2.05;;;0.80;99.90;;;0.56;93.29;102755.16;5009467;28;20034;-64
2021/03/05 04:37:38;;;;;;;9.50;2.95;;;0.80;99.90;;;0.57;93.48;102746.16;4990943;28;20084;-64
2021/03/05 04:40:10;;;;;;;4.55;1.50;;;0.80;99.90;;;0.66;92.78;102753.69;5026112;28;20054;-67
2021/03/05 04:42:37;;;;;;;5.32;1.08;;;0.80;99.90;;;0.62;92.54;102757.47;5024944;28;20535;-64
2021/03/05 04:45:05;;;;;;;6.93;0.80;;;0.80;99.90;;;0.64;93.21;102760.94;5009238;28;20056;-65
2021/03/05 04:47:31;;;;;;;4.43;1.20;;;0.80;99.90;;;0.56;93.30;102752.50;5007403;28;20087;-62
2021/03/05 04:49:57;;;;;;;6.32;1.33;;;0.80;99.90;;;0.57;92.87;102762.22;4976741;28;20041;-66
2021/03/05 04:52:23;;;;;;;7.30;2.17;;;0.80;99.90;;;0.53;93.30;102771.41;5010059;28;20037;-63
2021/03/05 04:54:49;;;;;;;12.65;1.88;;;0.80;99.90;;;0.54;93.43;102765.09;5010174;28;20061;-64
2021/03/05 04:57:15;;;;;;;8.05;2.28;;;0.80;99.90;;;0.62;93.05;102768.19;5008777;28;20121;-67
2021/03/05 04:59:40;;;;;;;3.85;1.10;;;0.80;99.90;;;0.55;93.13;102769.50;5009378;28;20092;-63
2021/03/05 05:02:06;;;;;;;5.60;1.65;;;0.80;99.90;;;0.59;93.91;102771.03;5024967;28;20038;-62
2021/03/05 05:04:32;;;;;;;13.68;3.00;;;0.80;99.90;;;0.53;93.77;102772.28;4991824;28;20476;-61
2021/03/05 05:06:58;;;;;;;5.35;1.20;;;0.80;99.90;;;0.57;94.26;102780.97;4992658;28;20460;-61
2021/03/05 05:09:24;;;;;;;12.75;2.03;;;0.80;99.90;;;0.58;94.01;102785.41;5011022;28;20072;-62
2021/03/05 05:11:49;;;;;;;9.52;1.52;;;0.70;99.90;;;0.72;93.49;102783.66;5006651;28;20546;-61
2021/03/05 05:14:15;;;;;;;7.70;2.55;;;0.80;99.90;;;0.72;92.87;102778.28;5026256;28;20038;-61
2021/03/05 05:16:41;;;;;;;7.13;1.00;;;0.80;99.90;;;0.63;93.50;102783.31;4991779;28;20036;-62
2021/03/05 05:19:07;;;;;;;10.88;1.27;;;0.80;99.90;;;0.60;94.02;102786.19;5008904;28;20064;-62
2021/03/05 05:21:33;;;;;;;17.23;1.92;;;0.80;99.90;;;0.69;93.61;102791.00;5025551;28;20087;-62
2021/03/05 05:23:59;;;;;;;9.85;1.05;;;0.80;99.90;;;0.61;93.74;102799.50;5007001;28;20030;-62
2021/03/05 05:26:26;;;;;;;6.43;0.85;;;0.80;99.90;;;0.79;92.53;102800.22;5007988;28;20099;-72
2021/03/05 05:28:51;;;;;;;11.00;2.75;;;0.80;99.90;;;0.82;92.36;102797.38;5008750;28;20044;-67
2021/03/05 05:31:17;;;;;;;6.70;1.15;;;0.80;99.90;;;0.60;93.66;102796.88;5009513;28;20384;-62
2021/03/05 05:33:43;;;;;;;4.22;1.05;;;0.80;99.90;;;0.58;94.37;102794.28;4991937;28;20042;-66
2021/03/05 05:36:09;;;;;;;12.00;1.85;;;0.80;99.90;;;0.53;94.15;102798.19;5008329;28;20315;-63
2021/03/05 05:38:35;;;;;;;7.30;1.50;;;0.80;99.90;;;0.54;93.86;102800.81;4963092;28;20489;-66
2021/03/05 05:41:02;;;;;;;8.57;1.80;;;0.80;99.90;;;0.64;93.47;102795.78;5011031;28;20069;-65
2021/03/05 05:43:32;;;;;;;6.80;1.48;;;0.80;99.90;;;0.58;94.31;102801.47;5009042;28;20030;-64
2021/03/05 05:46:07;;;;;;;3.15;0.98;;;0.80;99.90;;;0.59;93.14;102809.44;5009116;28;20042;-69
2021/03/05 05:48:38;;;;;;;8.93;1.60;;;0.80;99.90;;;0.62;94.10;102803.03;4994528;28;20064;-63
2021/03/05 05:51:24;;;;;;;7.03;2.22;;;0.80;99.90;;;0.48;93.98;102805.63;5026419;28;20074;-68
2021/03/05 05:53:51;;;;;;;5.43;0.85;;;0.70;99.90;;;0.52;93.21;102809.88;5008289;28;20042;-62
2021/03/05 05:56:19;;;;;;;5.97;1.95;;;0.70;99.90;;;0.53;93.95;102812.47;5009193;28;20030;-61
2021/03/05 05:58:46;;;;;;;13.93;2.55;;;0.70;99.90;;;0.41;94.53;102814.97;5008017;28;20049;-63
2021/03/05 06:01:13;;;;;;;7.70;1.35;;;0.70;99.90;;;0.48;95.01;102809.16;5008483;28;20030;-61
2021/03/05 06:03:40;;;;;;;5.88;1.15;;;0.70;99.90;;;0.55;94.85;102813.25;5005338;28;20064;-59
2021/03/05 06:06:07;;;;;;;9.30;2.05;;;0.70;99.90;;;0.51;94.39;102808.13;5002337;28;20602;-62
2021/03/05 06:08:33;;;;;;;6.13;1.17;;;0.70;99.90;;;0.52;94.97;102815.22;4999905;28;20053;-61
2021/03/05 06:10:59;;;;;;;6.10;1.27;;;0.70;99.90;;;0.52;95.16;102824.13;5009648;28;20045;-60
2021/03/05 06:13:27;;;;;;;7.45;1.08;;;0.70;99.90;;;0.52;94.67;102829.50;5008091;28;20057;-60
2021/03/05 06:16:19;;;;;;;9.60;2.05;;;0.70;99.90;;;0.49;94.84;102837.69;5022733;28;20077;-60
2021/03/05 06:18:46;;;;;;;5.70;1.13;;;0.70;99.90;;;0.50;95.40;102851.94;5009029;28;20038;-64
2021/03/05 06:21:12;;;;;;;16.83;2.28;;;0.70;99.90;;;0.56;95.48;102847.13;5025347;28;20034;-62
2021/03/05 06:23:59;;;;;;;4.80;1.50;;;0.70;99.90;;;0.49;95.33;102860.94;5022392;28;20049;-65
2021/03/05 06:26:25;;;;;;;1.60;1.02;;;0.70;99.90;;;0.59;95.49;102859.47;4995083;28;20160;-62
2021/03/05 06:29:05;;;;;;;6.90;1.20;;;0.80;99.90;;;0.51;95.58;102865.25;4994319;28;20056;-67
2021/03/05 06:31:33;;;;;;;12.55;1.20;;;0.80;99.90;;;0.60;95.15;102870.09;4988337;28;20044;-64
2021/03/05 06:34:01;;;;;;;11.57;3.88;;;0.80;99.90;;;0.64;94.89;102881.53;5024160;28;20030;-65
2021/03/05 06:36:28;;;;;;;10.60;1.48;;;0.80;99.90;;;0.73;94.25;102881.00;5012620;28;20045;-66
2021/03/05 06:38:54;;;;;;;2.47;1.23;;;0.90;99.90;;;0.86;93.50;102876.69;5011243;28;20528;-63
2021/03/05 06:41:29;;;;;;;15.38;1.83;;;0.90;99.90;;;0.81;93.82;102884.09;5016726;28;20188;-67
2021/03/05 06:44:01;;;;;;;8.45;1.40;;;1.00;99.90;;;0.95;92.59;102881.50;5024272;28;20097;-66
2021/03/05 06:46:28;;;;;;;11.57;1.60;;;1.00;99.90;;;0.98;92.16;102886.69;5015193;28;20038;-67
2021/03/05 06:48:55;;;;;;;15.38;1.58;;;1.00;99.90;;;0.99;92.24;102893.78;5006933;28;20046;-67
2021/03/05 06:51:22;;;;;;;4.95;1.77;;;1.10;99.90;;;1.05;92.30;102898.78;5008546;28;20053;-60
2021/03/05 06:53:48;;;;;;;5.57;1.23;;;1.20;99.90;;;1.05;91.83;102904.16;5009006;28;20038;-60
2021/03/05 06:56:31;;;;;;;3.78;1.40;;;1.20;99.90;;;1.21;91.15;102914.88;5014929;28;20052;-62
2021/03/05 06:59:13;;;;;;;10.38;1.30;;;1.30;99.90;;;1.35;90.57;102911.38;5029062;28;20053;-61
2021/03/05 07:01:47;;;;;;;6.00;1.35;;;1.30;99.90;;;1.30;89.91;102918.81;5015527;28;20038;-61
2021/03/05 07:04:16;;;;;;;;;;;1.40;99.90;;;1.29;90.36;102922.47;5009732;28;20053;-63
2021/03/05 07:06:42;;;;;;;11.38;1.30;;;1.50;99.90;;;1.49;89.24;102930.19;5005988;28;19918;-61
2021/03/05 07:09:20;;;;;;;4.88;1.10;;;1.50;99.90;;;1.53;88.55;102926.41;5018161;28;20046;-61
2021/03/05 07:11:46;;;;;;;5.68;1.55;;;1.60;99.90;;;1.62;88.27;102925.84;5011716;28;20157;-62
2021/03/05 07:14:12;;;;;;;6.05;2.13;;;1.70;99.90;;;1.89;87.36;102926.03;5028141;28;20491;-62
2021/03/05 07:16:49;;;;;;;6.57;1.60;;;1.80;99.90;;;2.41;85.11;102937.09;5028473;28;20046;-61
2021/03/05 07:19:18;;;;;;;16.73;2.10;;;2.20;99.90;;;3.96;81.05;102926.78;5010416;28;20089;-61
2021/03/05 07:21:50;;;;;;;10.93;1.33;;;2.90;99.90;;;5.63;71.14;102937.09;5009698;28;20404;-68
2021/03/05 07:24:19;;;;;;;4.15;1.42;;;4.00;99.90;;;7.00;65.27;102928.94;5027343;28;20396;-67
2021/03/05 07:26:53;;;;;;;11.55;1.30;;;5.10;99.90;;;8.36;57.63;102940.75;5012766;28;20050;-69
2021/03/05 07:29:25;;;;;;;7.03;1.42;;;6.40;99.90;;;9.35;52.75;102940.00;5002398;28;20051;-69
2021/03/05 07:32:03;;;;;;;9.02;1.35;;;7.40;99.90;;;9.98;49.11;102945.84;5017695;28;20035;-69
2021/03/05 07:34:32;;;;;;;7.90;1.58;;;8.20;99.10;;;11.09;45.40;102954.13;5020984;28;20213;-71
2021/03/05 07:37:06;;;;;;;7.32;1.30;;;9.10;96.90;;;12.30;43.27;102943.56;4994820;28;20026;-72
2021/03/05 07:39:39;;;;;;;11.55;1.52;;;10.10;95.50;;;11.40;42.27;102951.94;5004323;28;20030;-72
2021/03/05 07:42:09;;;;;;;8.63;2.33;;;10.20;92.80;;;8.67;49.39;102958.81;5002189;28;20373;-72
2021/03/05 07:44:37;;;;;;;4.82;1.15;;;9.30;93.10;;;7.26;53.15;102962.81;4987620;28;20421;-71
2021/03/05 07:47:14;;;;;;;4.28;1.17;;;8.30;94.40;;;6.26;57.84;102965.56;5021293;28;20030;-74
2021/03/05 07:49:40;;;;;;;10.25;1.58;;;7.20;96.80;;;5.58;61.57;102963.59;5021377;28;20038;-65
2021/03/05 07:52:08;;;;;;;5.32;1.40;;;6.40;99.00;;;4.88;64.61;102975.06;5010125;28;20046;-63
2021/03/05 07:54:40;;;;;;;6.25;1.58;;;5.70;99.90;;;4.34;66.38;102982.53;5004935;28;20035;-64
2021/03/05 07:57:18;;;;;;;4.65;1.10;;;5.00;99.90;;;4.74;67.58;102984.13;5012904;28;20411;-63
2021/03/05 07:59:45;;;;;;;11.73;1.80;;;4.80;99.90;;;6.34;60.80;102972.09;5027681;28;20041;-61
2021/03/05 08:02:12;;;;;;;6.95;1.30;;;5.40;99.90;;;7.97;53.98;102980.31;5013092;28;20108;-64
2021/03/05 08:04:50;;;;;;;5.65;1.00;;;6.40;99.90;;;8.93;49.52;102985.47;4991001;28;20501;-64
2021/03/05 08:07:18;;;;;;;4.10;1.33;;;7.60;98.20;;;9.93;46.58;102988.97;5011202;28;20034;-69
2021/03/05 08:09:44;;;;;;;6.60;1.05;;;8.50;96.30;;;11.48;43.17;102982.88;4993822;28;20046;-66
2021/03/05 08:15:08;;;;;;;5.15;1.42;;;10.60;91.50;;;13.63;36.43;102993.06;5012465;28;20422;-63
2021/03/05 08:17:48;;;;;;;6.68;1.60;;;11.40;88.50;;;13.69;36.31;102995.97;5008519;28;20038;-64
2021/03/05 08:20:17;;;;;;;8.88;1.38;;;12.30;83.20;;;15.32;33.92;102996.63;5023514;28;20033;-65
2021/03/05 08:22:58;;;;;;;7.93;1.38;;;13.00;80.60;;;13.88;34.87;102989.34;5009414;28;20042;-64
2021/03/05 08:25:29;;;;;;;3.70;1.10;;;13.20;73.80;;;14.87;33.43;102998.19;5010952;28;20036;-64
2021/03/05 08:27:57;;;;;;;5.20;1.33;;;13.40;73.60;;;14.65;33.91;103004.41;5010137;28;20045;-64
2021/03/05 08:30:28;;;;;;;7.82;0.88;;;13.40;72.30;;;14.08;33.72;103004.41;5011699;28;20038;-64
2021/03/05 08:33:02;;;;;;;7.15;1.25;;;13.50;69.70;;;14.86;32.82;103004.69;5005418;28;20044;-62
2021/03/05 08:35:31;;;;;;;7.20;1.23;;;13.60;69.60;;;15.06;32.57;103007.03;5009941;28;20053;-64
2021/03/05 08:38:19;;;;;;;5.00;1.23;;;13.60;68.90;;;14.64;32.75;103012.81;5003138;28;20042;-62
2021/03/05 08:40:44;;;;;;;5.72;1.17;;;13.80;67.80;;;14.18;34.12;103024.28;5010872;28;20097;-64
2021/03/05 08:43:10;;;;;;;8.52;1.10;;;13.60;68.30;;;13.94;34.54;103015.19;5010388;28;20453;-62
2021/03/05 08:45:43;;;;;;;10.98;1.35;;;13.50;68.50;;;15.20;32.34;103007.16;5009013;28;20109;-63
2021/03/05 08:48:11;;;;;;;6.88;1.52;;;13.60;68.70;;;15.98;31.04;103019.94;5025116;28;20520;-63
2021/03/05 08:50:39;;;;;;;2.35;0.93;;;14.10;66.90;;;17.28;28.68;103015.91;4993075;28;20047;-64
2021/03/05 08:53:12;;;;;;;9.18;1.85;;;14.90;63.80;;;17.21;29.10;103012.22;5008550;28;20072;-64
2021/03/05 08:55:42;;;;;;;9.23;2.22;;;15.40;61.70;;;17.16;27.86;103017.44;5006764;28;20049;-64
2021/03/05 08:58:08;;;;;;;8.45;1.67;;;16.00;59.10;;;16.41;28.74;103012.88;5013300;28;20038;-64
2021/03/05 09:00:36;;;;;;;7.07;0.90;;;15.80;55.80;;;15.00;29.74;103026.94;5011488;28;20552;-62
2021/03/05 09:03:22;;;;;;;4.85;1.42;;;15.40;53.40;;;15.26;30.43;103024.78;5021197;28;20086;-62
2021/03/05 09:05:50;;;;;;;4.78;1.10;;;15.00;56.30;;;15.46;29.38;103034.28;4984670;28;20389;-61
2021/03/05 09:08:23;;;;;;;4.60;1.50;;;15.00;56.10;;;16.40;28.87;103033.16;4988141;28;20085;-62
2021/03/05 09:10:55;;;;;;;1.80;0.80;;;15.10;56.80;;;15.37;27.51;103037.25;5006725;28;20045;-67
2021/03/05 09:13:26;;;;;;;1.70;0.73;;;15.10;51.40;;;15.03;27.86;103040.28;5008678;28;20034;-71
2021/03/05 09:15:54;;;;;;;4.30;0.77;;;15.00;50.00;;;15.91;27.23;103032.72;5007323;28;20129;-67
2021/03/05 09:18:27;;;;;;;5.35;1.00;;;14.80;50.40;;;16.14;26.36;103039.03;5021402;28;20038;-70
2021/03/05 09:21:06;;;;;;;2.22;0.70;;;15.10;50.00;;;15.92;26.54;103037.13;5021008;28;20117;-71
2021/03/05 09:23:43;;;;;;;3.22;1.00;;;15.30;49.10;;;16.26;25.34;103039.47;5006292;28;20475;-67
2021/03/05 09:26:15;;;;;;;4.78;0.98;;;15.50;47.40;;;15.41;27.01;103039.47;4997936;28;20042;-71
2021/03/05 09:28:46;;;;;;;3.00;1.40;;;15.20;48.10;;;14.13;27.45;103059.53;5006209;28;20096;-67
2021/03/05 09:31:15;;;;;;;3.45;0.52;;;14.50;46.80;;;13.54;28.17;103046.94;5011327;28;20109;-67
2021/03/05 09:33:44;;;;;;;1.55;0.52;;;14.00;47.10;;;13.89;28.62;103045.78;5007273;28;20029;-72
2021/03/05 09:36:15;;;;;;;2.40;0.80;;;13.80;49.30;;;14.09;28.50;103051.84;4994214;28;20073;-66
2021/03/05 09:38:44;;;;;;;3.90;0.77;;;13.80;49.30;;;14.24;28.40;103044.63;5026799;28;20498;-69
2021/03/05 09:41:18;;;;;;;4.80;0.70;;;13.80;49.40;;;14.91;27.47;103039.81;5004063;28;20033;-65
2021/03/05 09:43:56;;;;;;;3.90;0.95;;;14.10;50.00;;;14.65;27.12;103053.75;5002270;28;20091;-69
2021/03/05 09:46:29;;;;;;;4.10;0.82;;;14.40;47.90;;;14.08;28.37;103056.47;5007868;28;20038;-69
2021/03/05 09:48:56;;;;;;;0.73;0.57;;;14.20;47.90;;;13.08;28.42;103050.97;5025648;28;20041;-70
2021/03/05 09:51:23;;;;;;;2.75;0.60;;;14.00;46.80;;;12.75;28.24;103049.06;5009638;28;20049;-71
2021/03/05 09:53:55;;;;;;;2.58;0.65;;;13.40;46.50;;;12.64;28.13;103053.72;5010590;28;20566;-72
2021/03/05 09:56:27;;;;;;;0.98;0.50;;;13.20;47.00;;;12.83;28.87;103051.81;5034384;28;20215;-70
2021/03/05 09:58:53;;;;;;;1.73;0.93;;;13.10;47.00;;;13.40;27.54;103062.09;5005500;28;20448;-69
2021/03/05 10:01:19;;;;;;;5.55;1.10;;;13.40;46.40;;;13.57;27.22;103065.72;5016459;28;20038;-71
2021/03/05 10:03:55;;;;;;;3.53;0.50;;;13.60;46.70;;;14.09;26.14;103058.16;5023042;28;20041;-71
2021/03/05 10:06:21;;;;;;;2.67;0.60;;;13.80;45.70;;;14.62;26.23;103055.97;5007526;28;20046;-69
2021/03/05 10:08:56;;;;;;;4.18;0.98;;;13.70;46.70;;;15.05;26.11;103061.03;5003105;28;20504;-72
2021/03/05 10:11:35;;;;;;;2.40;0.50;;;13.90;46.70;;;14.18;27.01;103070.84;4994389;28;20485;-72
2021/03/05 10:14:07;;;;;;;2.58;1.10;;;14.00;46.70;;;13.98;27.17;103066.72;5008175;28;20058;-68
2021/03/05 10:16:33;;;;;;;3.25;0.80;;;13.80;46.50;;;14.02;27.92;103067.22;5005292;28;20037;-67
2021/03/05 10:19:16;;;;;;;3.40;1.02;;;13.70;48.20;;;13.09;28.62;103064.44;5006585;28;20046;-67
2021/03/05 10:21:47;;;;;;;2.25;0.65;;;13.40;48.20;;;13.86;27.94;103076.25;5009340;28;20485;-67
2021/03/05 10:24:21;;;;;;;2.60;0.60;;;13.40;48.20;;;14.09;28.24;103077.34;4997786;28;20038;-70
2021/03/05 10:29:49;;;;;;;2.20;0.85;;;13.30;48.30;;;13.88;29.19;103076.09;5027594;28;20045;-67
2021/03/05 10:32:40;;;;;;;1.90;0.90;;;13.50;49.40;;;12.41;30.24;103074.41;5020990;28;20036;-65
2021/03/05 10:35:11;;;;;;;2.65;0.60;;;13.10;49.30;;;11.45;32.77;103080.50;5022358;28;20061;-65
2021/03/05 10:37:39;;;;;;;5.22;0.90;;;12.10;52.10;;;9.74;37.25;103083.16;5025328;28;20045;-71